Time;durP1;ratioP1;P1;durP2;ratioP2;P2;SDS_P1;SDS_P2;PMS_P1;PMS_P2;Temp;Humidity;BMP_temperature;BMP_pressure;BME280_temperature;BME280_humidity;BME280_pressure;Samples;Min_cycle;Max_cycle;Signal;HPM_P1;HPM_P2
2020/12/26 00:01:10;;;;;;;6.30;5.70;;;1.60;1.00;;;;;;4976865;28;20172;-59
2020/12/26 00:03:35;;;;;;;8.18;5.40;;;1.50;1.00;;;;;;4977811;28;20629;-59
2020/12/26 00:06:01;;;;;;;7.00;5.73;;;1.60;1.00;;;;;;4978322;28;20179;-59
2020/12/26 00:08:27;;;;;;;9.90;7.07;;;1.60;1.00;;;;;;4978497;28;20187;-59
2020/12/26 00:10:52;;;;;;;9.20;7.40;;;1.70;1.00;;;;;;4977805;28;20483;-58
2020/12/26 00:13:18;;;;;;;8.00;6.23;;;1.70;1.00;;;;;;4977700;28;20526;-59
2020/12/26 00:15:43;;;;;;;12.20;7.57;;;1.80;1.00;;;;;;4977792;28;20638;-59
2020/12/26 00:18:09;;;;;;;8.57;6.90;;;1.80;1.00;;;;;;4977956;28;20198;-59
2020/12/26 00:20:34;;;;;;;10.17;7.07;;;1.80;1.00;;;;;;4977632;28;20254;-60
2020/12/26 00:23:00;;;;;;;14.60;7.97;;;1.70;1.00;;;;;;4978297;28;20180;-60
2020/12/26 00:25:25;;;;;;;8.17;7.07;;;1.60;1.00;;;;;;4977209;28;20638;-60
2020/12/26 00:27:51;;;;;;;7.43;6.40;;;1.70;1.00;;;;;;4977474;28;20254;-59
2020/12/26 00:30:16;;;;;;;19.17;12.33;;;1.60;1.00;;;;;;4977458;28;20294;-59
2020/12/26 00:32:42;;;;;;;38.73;19.63;;;1.70;1.00;;;;;;4977388;28;20660;-60
2020/12/26 00:35:07;;;;;;;9.27;7.93;;;1.70;1.00;;;;;;4977030;28;20595;-59
2020/12/26 00:37:33;;;;;;;11.30;7.93;;;1.80;1.00;;;;;;4977104;28;20538;-59
2020/12/26 00:39:58;;;;;;;7.00;6.20;;;1.80;1.00;;;;;;4977189;28;20188;-59
2020/12/26 00:42:24;;;;;;;9.20;6.90;;;1.80;1.00;;;;;;4976376;28;20258;-59
2020/12/26 00:44:49;;;;;;;9.63;7.00;;;1.90;1.00;;;;;;4977044;28;20234;-60
2020/12/26 00:47:15;;;;;;;10.27;7.30;;;1.70;1.00;;;;;;4975981;28;20195;-59
2020/12/26 00:49:41;;;;;;;11.23;7.80;;;1.90;1.00;;;;;;4975771;28;20628;-59
2020/12/26 00:52:07;;;;;;;13.18;8.27;;;1.90;1.00;;;;;;4976343;28;20176;-59
2020/12/26 00:54:32;;;;;;;8.63;7.63;;;2.00;1.00;;;;;;4976490;28;20195;-59
2020/12/26 00:56:58;;;;;;;11.80;8.03;;;1.90;1.00;;;;;;4976670;28;20176;-58
2020/12/26 00:59:23;;;;;;;12.50;9.03;;;2.00;1.00;;;;;;4976570;28;20274;-58
2020/12/26 01:01:55;;;;;;;9.30;7.90;;;2.00;1.00;;;;;;4976654;28;20283;-58
2020/12/26 01:04:21;;;;;;;10.95;8.90;;;2.00;1.00;;;;;;4976309;28;20259;-58
2020/12/26 01:06:54;;;;;;;16.13;9.23;;;1.90;1.00;;;;;;4976140;28;20648;-59
2020/12/26 01:09:21;;;;;;;13.32;9.70;;;1.90;1.00;;;;;;4974831;28;20431;-59
2020/12/26 01:11:47;;;;;;;13.63;11.40;;;2.00;1.00;;;;;;4975382;28;20213;-59
2020/12/26 01:14:12;;;;;;;17.13;9.47;;;2.00;1.00;;;;;;4974649;28;20258;-59
2020/12/26 01:16:38;;;;;;;18.20;9.37;;;1.90;1.00;;;;;;4974795;28;20614;-59
2020/12/26 01:19:03;;;;;;;12.77;9.50;;;2.00;1.00;;;;;;4975800;28;20177;-59
2020/12/26 01:21:29;;;;;;;13.63;9.70;;;2.10;1.00;;;;;;4975847;28;20271;-59
2020/12/26 01:23:55;;;;;;;58.17;28.70;;;2.10;1.00;;;;;;4975485;28;20443;-59
2020/12/26 01:26:20;;;;;;;20.87;15.10;;;2.10;1.00;;;;;;4975658;28;20184;-59
2020/12/26 01:28:46;;;;;;;19.57;10.87;;;2.30;1.00;;;;;;4975744;28;20184;-60
2020/12/26 01:31:12;;;;;;;18.83;11.87;;;2.30;1.00;;;;;;4975631;28;20219;-60
2020/12/26 01:33:38;;;;;;;14.95;10.18;;;2.20;1.00;;;;;;4975410;28;20683;-60
2020/12/26 01:36:03;;;;;;;12.17;9.40;;;2.20;1.00;;;;;;4975475;28;20200;-60
2020/12/26 01:38:29;;;;;;;20.57;12.60;;;2.20;1.00;;;;;;4974532;28;20188;-62
2020/12/26 01:40:54;;;;;;;15.53;10.47;;;2.10;1.00;;;;;;4975429;28;20192;-60
2020/12/26 01:43:20;;;;;;;14.80;10.83;;;1.90;1.00;;;;;;4975214;28;20191;-62
2020/12/26 01:45:46;;;;;;;15.77;8.40;;;1.90;1.00;;;;;;4975331;28;20188;-62
2020/12/26 01:48:19;;;;;;;12.90;9.52;;;1.80;1.00;;;;;;4974412;28;20188;-62
2020/12/26 01:50:45;;;;;;;17.55;10.32;;;1.60;1.00;;;;;;4975135;28;20258;-62
2020/12/26 01:53:11;;;;;;;15.55;10.57;;;1.70;1.00;;;;;;4975112;28;20180;-62
2020/12/26 01:55:37;;;;;;;18.88;11.85;;;1.60;1.00;;;;;;4975212;28;20172;-62
2020/12/26 01:58:03;;;;;;;16.83;11.30;;;1.60;1.00;;;;;;4973986;28;20196;-62
2020/12/26 02:00:29;;;;;;;23.27;11.90;;;1.60;1.00;;;;;;4975053;28;20200;-62
2020/12/26 02:02:55;;;;;;;20.27;11.13;;;1.70;1.00;;;;;;4975130;28;20263;-62
2020/12/26 02:05:20;;;;;;;15.93;10.70;;;1.70;1.00;;;;;;4973881;28;20188;-62
2020/12/26 02:07:47;;;;;;;19.00;11.30;;;1.60;1.00;;;;;;4975014;28;20271;-62
2020/12/26 02:10:13;;;;;;;23.15;12.00;;;1.50;1.00;;;;;;4975115;28;20204;-62
2020/12/26 02:12:39;;;;;;;17.30;12.80;;;1.50;1.00;;;;;;4975124;28;20242;-62
2020/12/26 02:15:05;;;;;;;20.77;12.03;;;1.30;1.00;;;;;;4974724;28;20551;-62
2020/12/26 02:17:30;;;;;;;14.23;11.03;;;1.30;1.00;;;;;;4975027;28;20451;-62
2020/12/26 02:19:56;;;;;;;17.70;11.57;;;1.30;1.00;;;;;;4974805;28;20223;-62
2020/12/26 02:22:21;;;;;;;16.80;11.07;;;1.30;1.00;;;;;;4974767;28;20184;-62
2020/12/26 02:24:47;;;;;;;14.30;9.83;;;1.30;1.00;;;;;;4974647;28;20274;-62
2020/12/26 02:27:13;;;;;;;19.47;12.17;;;1.30;1.00;;;;;;4974765;28;20172;-62
2020/12/26 02:29:39;;;;;;;17.10;11.43;;;1.40;1.00;;;;;;4974768;28;20424;-62
2020/12/26 02:32:04;;;;;;;18.67;12.43;;;1.40;1.00;;;;;;4974673;28;20212;-62
2020/12/26 02:34:30;;;;;;;14.10;10.10;;;1.40;1.00;;;;;;4974449;28;20716;-62
2020/12/26 02:36:55;;;;;;;13.90;9.70;;;1.40;1.00;;;;;;4974766;28;20184;-62
2020/12/26 02:39:21;;;;;;;13.60;10.27;;;1.30;1.00;;;;;;4974964;28;20508;-62
2020/12/26 02:41:47;;;;;;;16.30;9.57;;;1.20;1.00;;;;;;4974655;28;20720;-62
2020/12/26 02:44:13;;;;;;;19.83;11.27;;;1.20;1.00;;;;;;4974418;28;20527;-62
2020/12/26 02:46:38;;;;;;;16.43;9.70;;;1.10;1.00;;;;;;4974622;28;20183;-62
2020/12/26 02:49:04;;;;;;;17.70;10.73;;;1.10;1.00;;;;;;4975054;28;20188;-62
2020/12/26 02:51:29;;;;;;;15.50;9.67;;;1.10;1.00;;;;;;4974634;28;20211;-62
2020/12/26 02:53:55;;;;;;;15.90;9.33;;;1.10;1.00;;;;;;4974296;28;20173;-62
2020/12/26 02:56:21;;;;;;;15.73;10.40;;;1.10;1.00;;;;;;4974447;28;20176;-62
2020/12/26 02:58:47;;;;;;;14.75;9.45;;;0.90;1.00;;;;;;4974356;28;20250;-62
2020/12/26 03:01:12;;;;;;;13.57;10.93;;;1.00;1.00;;;;;;4974523;28;20180;-62
2020/12/26 03:03:38;;;;;;;15.70;9.77;;;1.00;1.00;;;;;;4974224;28;20610;-62
2020/12/26 03:06:03;;;;;;;12.07;9.30;;;1.00;1.00;;;;;;4973375;28;20227;-62
2020/12/26 03:08:29;;;;;;;12.43;8.70;;;1.20;1.00;;;;;;4974413;28;20192;-62
2020/12/26 03:10:54;;;;;;;15.10;10.63;;;1.20;1.00;;;;;;4975944;28;20289;-62
2020/12/26 03:13:20;;;;;;;11.20;8.90;;;1.20;1.00;;;;;;4978079;28;20194;-59
2020/12/26 03:15:46;;;;;;;15.33;10.33;;;1.40;1.00;;;;;;4978083;28;20195;-59
2020/12/26 03:18:11;;;;;;;13.70;8.90;;;1.40;1.00;;;;;;4977893;28;20499;-59
2020/12/26 03:20:37;;;;;;;12.20;8.77;;;1.40;1.00;;;;;;4978103;28;20484;-59
2020/12/26 03:23:02;;;;;;;12.93;9.40;;;1.40;1.00;;;;;;4978024;28;20275;-59
2020/12/26 03:25:28;;;;;;;10.73;8.57;;;1.50;1.00;;;;;;4977865;28;20191;-59
2020/12/26 03:27:53;;;;;;;11.53;9.97;;;1.50;1.00;;;;;;4976911;28;20621;-59
2020/12/26 03:30:19;;;;;;;13.00;9.60;;;1.50;99.90;;;;;;4976832;28;20204;-59
2020/12/26 03:32:45;;;;;;;13.47;8.97;;;1.40;99.90;;;;;;4977692;28;20254;-59
2020/12/26 03:35:10;;;;;;;12.90;8.70;;;1.50;1.00;;;;;;4977820;28;20566;-59
2020/12/26 03:37:37;;;;;;;13.93;8.80;;;1.50;1.00;;;;;;4977691;28;20206;-59
2020/12/26 03:40:04;;;;;;;14.93;9.75;;;1.50;1.00;;;;;;4977601;28;20511;-59
2020/12/26 03:42:30;;;;;;;15.02;9.57;;;1.50;1.00;;;;;;4977673;28;20187;-59
2020/12/26 03:44:56;;;;;;;15.73;9.13;;;1.50;1.00;;;;;;4977377;28;20188;-60
2020/12/26 03:47:21;;;;;;;11.03;9.30;;;1.60;1.00;;;;;;4977467;28;20583;-60
2020/12/26 03:49:47;;;;;;;13.50;8.93;;;1.70;1.00;;;;;;4976554;28;20175;-60
2020/12/26 03:52:13;;;;;;;15.23;9.67;;;1.90;1.00;;;;;;4977378;28;20180;-60
2020/12/26 03:54:38;;;;;;;10.47;8.60;;;2.10;1.00;;;;;;4976176;28;20184;-61
2020/12/26 03:57:04;;;;;;;14.00;9.23;;;2.20;1.00;;;;;;4977393;28;20423;-61
2020/12/26 03:59:30;;;;;;;13.80;10.00;;;2.30;1.00;;;;;;4977225;28;20652;-60
2020/12/26 04:01:55;;;;;;;15.60;10.20;;;2.30;1.00;;;;;;4977243;28;20556;-60
2020/12/26 04:04:21;;;;;;;12.77;9.37;;;2.30;99.90;;;;;;4977228;28;20558;-60
2020/12/26 04:06:46;;;;;;;18.13;9.80;;;2.40;99.90;;;;;;4977157;28;20188;-61
2020/12/26 04:09:13;;;;;;;14.33;9.57;;;2.50;99.90;;;;;;4977280;28;20263;-61
2020/12/26 04:11:39;;;;;;;15.18;10.20;;;2.60;99.90;;;;;;4977070;28;20291;-60
2020/12/26 04:14:04;;;;;;;17.00;11.20;;;2.50;99.90;;;;;;4976906;28;20560;-62
2020/12/26 04:16:30;;;;;;;13.40;9.27;;;2.50;99.90;;;;;;4976928;28;20769;-62
2020/12/26 04:18:58;;;;;;;14.83;9.60;;;2.50;99.90;;;;;;4975782;28;20184;-62
2020/12/26 04:21:25;;;;;;;14.20;9.98;;;2.60;99.90;;;;;;4976744;28;20518;-62
2020/12/26 04:23:51;;;;;;;16.80;10.45;;;2.60;99.90;;;;;;4976531;28;20260;-62
2020/12/26 04:26:17;;;;;;;16.95;9.90;;;2.80;99.90;;;;;;4976749;28;20192;-59
2020/12/26 04:28:43;;;;;;;14.40;10.57;;;2.80;99.90;;;;;;4976687;28;20601;-59
2020/12/26 04:31:08;;;;;;;13.83;9.87;;;2.70;99.90;;;;;;4976752;28;20673;-59
2020/12/26 04:33:34;;;;;;;14.10;10.63;;;2.50;99.90;;;;;;4975361;28;20263;-58
2020/12/26 04:35:59;;;;;;;15.07;10.80;;;2.60;99.90;;;;;;4976512;28;20262;-62
2020/12/26 04:38:25;;;;;;;13.00;9.30;;;2.70;99.90;;;;;;4976487;28;20176;-60
2020/12/26 04:40:50;;;;;;;13.53;9.00;;;2.90;99.90;;;;;;4976413;28;20207;-60
2020/12/26 04:43:16;;;;;;;18.03;9.87;;;2.90;99.90;;;;;;4976195;28;20176;-60
2020/12/26 04:45:43;;;;;;;12.85;9.77;;;2.70;99.90;;;;;;4976382;28;20282;-60
2020/12/26 04:48:14;;;;;;;12.90;8.93;;;2.70;99.90;;;;;;4976539;28;20544;-61
2020/12/26 04:50:46;;;;;;;12.50;9.05;;;2.90;99.90;;;;;;4976300;28;20200;-62
2020/12/26 04:53:16;;;;;;;18.80;10.20;;;3.00;99.90;;;;;;4976136;28;20187;-61
2020/12/26 04:55:46;;;;;;;11.18;7.72;;;3.00;99.90;;;;;;4976341;28;20179;-62
2020/12/26 04:58:12;;;;;;;11.27;8.30;;;2.80;99.90;;;;;;4976122;28;20180;-61
2020/12/26 05:00:39;;;;;;;10.20;8.20;;;2.90;99.90;;;;;;4976164;28;20250;-61
2020/12/26 05:03:07;;;;;;;12.95;8.15;;;3.00;99.90;;;;;;4975963;28;20263;-61
2020/12/26 05:05:34;;;;;;;16.00;10.48;;;3.00;99.90;;;;;;4976265;28;20271;-60
2020/12/26 05:08:03;;;;;;;13.63;9.02;;;2.90;99.90;;;;;;4976021;28;20258;-60
2020/12/26 05:10:29;;;;;;;12.90;9.02;;;2.90;99.90;;;;;;4976106;28;20262;-60
2020/12/26 05:12:54;;;;;;;17.10;8.20;;;2.90;99.90;;;;;;4976205;28;20187;-60
2020/12/26 05:15:20;;;;;;;10.60;8.20;;;2.90;99.90;;;;;;4975981;28;20172;-60
2020/12/26 05:17:45;;;;;;;13.90;10.17;;;2.90;99.90;;;;;;4976036;28;20289;-60
2020/12/26 05:20:11;;;;;;;11.57;9.43;;;2.70;1.00;;;;;;4975995;28;20188;-60
2020/12/26 05:22:36;;;;;;;14.30;9.13;;;2.70;1.00;;;;;;4975924;28;20188;-60
2020/12/26 05:25:07;;;;;;;15.97;10.17;;;2.80;1.00;;;;;;4975642;28;20254;-60
2020/12/26 05:27:33;;;;;;;14.77;10.13;;;2.80;1.00;;;;;;4975735;28;20525;-60
2020/12/26 05:30:00;;;;;;;13.40;10.10;;;2.70;1.00;;;;;;4975463;28;20614;-61
2020/12/26 05:32:26;;;;;;;12.88;9.30;;;2.70;1.00;;;;;;4975454;28;20420;-60
2020/12/26 05:34:51;;;;;;;14.03;8.83;;;2.80;1.00;;;;;;4974988;28;20207;-60
2020/12/26 05:37:17;;;;;;;12.73;10.07;;;2.70;1.00;;;;;;4975329;28;20192;-60
2020/12/26 05:39:43;;;;;;;15.00;10.50;;;2.80;1.00;;;;;;4975503;28;20188;-61
2020/12/26 05:42:08;;;;;;;13.33;8.60;;;2.80;1.00;;;;;;4975336;28;20184;-61
2020/12/26 05:44:36;;;;;;;12.07;9.60;;;2.70;1.00;;;;;;4975196;28;20190;-61
2020/12/26 05:47:04;;;;;;;10.98;9.00;;;2.70;1.00;;;;;;4975396;28;20624;-61
2020/12/26 05:49:32;;;;;;;8.45;7.55;;;2.70;1.00;;;;;;4975225;28;20184;-62
2020/12/26 05:52:03;;;;;;;9.23;8.20;;;2.70;1.00;;;;;;4974937;28;20215;-62
2020/12/26 05:54:30;;;;;;;9.85;8.10;;;2.90;1.00;;;;;;4974826;28;20184;-63
2020/12/26 05:57:11;;;;;;;12.70;9.02;;;2.80;1.00;;;;;;4975249;28;20184;-63
2020/12/26 05:59:38;;;;;;;10.40;7.97;;;2.70;1.00;;;;;;4975112;28;20191;-60
2020/12/26 06:02:36;;;;;;;18.63;8.82;;;2.70;1.00;;;;;;4975051;28;20198;-63
2020/12/26 06:05:05;;;;;;;19.27;9.38;;;2.70;1.00;;;;;;4962746;28;20192;-61
2020/12/26 06:07:35;;;;;;;10.40;8.10;;;2.80;1.00;;;;;;4975004;28;20255;-61
2020/12/26 06:10:03;;;;;;;12.73;9.32;;;2.80;1.00;;;;;;4974922;28;20195;-62
2020/12/26 06:12:29;;;;;;;15.93;9.95;;;2.90;1.00;;;;;;4974957;28;20176;-61
2020/12/26 06:14:56;;;;;;;12.80;9.23;;;3.00;1.00;;;;;;4974751;28;20238;-60
2020/12/26 06:17:27;;;;;;;12.90;8.63;;;3.00;1.00;;;;;;4974841;28;20513;-60
2020/12/26 06:20:05;;;;;;;11.00;8.73;;;2.90;1.00;;;;;;4975065;28;20200;-60
2020/12/26 06:22:49;;;;;;;10.63;9.02;;;2.90;1.00;;;;;;4974913;28;20176;-60
2020/12/26 06:25:21;;;;;;;12.90;8.23;;;3.00;1.00;;;;;;4974594;28;20176;-60
2020/12/26 06:27:53;;;;;;;13.15;9.13;;;3.00;1.00;;;;;;4973851;28;20180;-60
2020/12/26 06:30:19;;;;;;;13.35;8.80;;;2.90;1.00;;;;;;4974831;28;20212;-60
2020/12/26 06:32:46;;;;;;;15.10;9.00;;;2.90;1.00;;;;;;4974627;28;20563;-59
2020/12/26 06:35:13;;;;;;;14.27;9.00;;;2.90;1.00;;;;;;4974359;28;20203;-60
2020/12/26 06:37:39;;;;;;;14.57;9.40;;;3.00;1.00;;;;;;4975444;28;20624;-60
2020/12/26 06:40:23;;;;;;;16.52;10.27;;;3.00;1.00;;;;;;4974750;28;20179;-59
2020/12/26 06:42:49;;;;;;;14.13;10.40;;;3.00;1.00;;;;;;4974774;28;20180;-59
2020/12/26 06:46:00;;;;;;;18.43;12.47;;;2.90;1.00;;;;;;4975282;28;20235;-58
2020/12/26 06:48:35;;;;;;;13.65;10.70;;;3.00;1.00;;;;;;4976229;28;20490;-59
2020/12/26 06:51:26;;;;;;;14.00;9.65;;;3.00;1.00;;;;;;4977458;28;20221;-61
2020/12/26 06:53:55;;;;;;;11.88;9.55;;;2.80;1.00;;;;;;4978350;28;20176;-60
2020/12/26 06:56:35;;;;;;;13.45;9.65;;;3.00;1.00;;;;;;4977541;28;20187;-58
2020/12/26 06:59:11;;;;;;;11.73;7.63;;;3.00;1.00;;;;;;4978384;28;20303;-58
2020/12/26 07:01:46;;;;;;;10.85;8.30;;;3.00;1.00;;;;;;4978498;28;20199;-58
2020/12/26 07:04:22;;;;;;;12.95;7.32;;;3.00;1.00;;;;;;4978291;28;20545;-58
2020/12/26 07:06:50;;;;;;;10.88;6.95;;;3.10;1.00;;;;;;4978311;28;20524;-59
2020/12/26 07:09:38;;;;;;;9.68;7.43;;;3.10;1.00;;;;;;4978158;28;20195;-59
2020/12/26 07:12:05;;;;;;;8.63;7.00;;;3.10;1.00;;;;;;4978108;28;20234;-59
2020/12/26 07:14:37;;;;;;;11.00;7.35;;;3.10;1.00;;;;;;4977860;28;20183;-59
2020/12/26 07:17:06;;;;;;;8.32;6.07;;;3.10;1.00;;;;;;4978093;28;20241;-59
2020/12/26 07:19:38;;;;;;;8.15;6.30;;;3.20;1.00;;;;;;4976961;28;20183;-60
2020/12/26 07:22:21;;;;;;;8.07;5.57;;;3.20;1.00;;;;;;4977936;28;20660;-59
2020/12/26 07:24:51;;;;;;;7.65;6.00;;;3.20;1.00;;;;;;4977857;28;20184;-59
2020/12/26 07:27:17;;;;;;;7.63;6.13;;;3.30;1.00;;;;;;4977905;28;20202;-59
2020/12/26 07:29:56;;;;;;;9.30;6.85;;;3.40;1.00;;;;;;4978303;28;20659;-62
2020/12/26 07:32:37;;;;;;;7.32;5.70;;;3.60;1.00;;;;;;4978568;28;20195;-61
2020/12/26 07:35:04;;;;;;;6.43;5.43;;;3.50;1.00;;;;;;4977997;28;20625;-60
2020/12/26 07:37:30;;;;;;;5.95;5.35;;;3.40;1.00;;;;;;4977682;28;20184;-61
2020/12/26 07:39:56;;;;;;;7.95;6.30;;;3.30;1.00;;;;;;4977695;28;20199;-63
2020/12/26 07:42:25;;;;;;;7.10;5.77;;;3.40;1.00;;;;;;4977534;28;20609;-63
2020/12/26 07:44:50;;;;;;;8.65;5.78;;;3.40;1.00;;;;;;4977276;28;20606;-63
2020/12/26 07:47:17;;;;;;;7.67;5.90;;;3.40;1.00;;;;;;4977473;28;20180;-63
2020/12/26 07:49:42;;;;;;;6.70;5.82;;;3.40;1.00;;;;;;4977602;28;20184;-61
2020/12/26 07:52:09;;;;;;;6.43;5.83;;;3.30;1.00;;;;;;4976256;28;20220;-61
2020/12/26 07:54:35;;;;;;;7.40;5.97;;;3.30;1.00;;;;;;4977023;28;20903;-61
2020/12/26 07:57:02;;;;;;;8.65;6.10;;;3.40;1.00;;;;;;4976834;28;20585;-61
2020/12/26 07:59:28;;;;;;;6.93;5.75;;;3.40;1.00;;;;;;4977187;28;20274;-61
2020/12/26 08:01:55;;;;;;;8.47;6.80;;;3.50;1.00;;;;;;4977315;28;20270;-61
2020/12/26 08:04:22;;;;;;;8.00;5.97;;;3.40;1.00;;;;;;4976976;28;20192;-61
2020/12/26 08:06:49;;;;;;;7.88;7.03;;;3.20;1.00;;;;;;4977265;28;20176;-61
2020/12/26 08:09:16;;;;;;;8.60;6.53;;;3.20;1.00;;;;;;4977080;28;20184;-62
2020/12/26 08:11:42;;;;;;;7.75;6.95;;;3.40;1.00;;;;;;4977032;28;20295;-60
2020/12/26 08:14:08;;;;;;;9.73;7.70;;;3.40;1.00;;;;;;4976745;28;20204;-61
2020/12/26 08:16:35;;;;;;;9.32;6.97;;;3.40;1.00;;;;;;4976139;28;20214;-61
2020/12/26 08:19:02;;;;;;;8.75;7.13;;;3.40;1.00;;;;;;4977067;28;20176;-59
2020/12/26 08:21:29;;;;;;;9.23;6.72;;;3.40;1.00;;;;;;4976546;28;20257;-59
2020/12/26 08:24:04;;;;;;;6.95;6.25;;;3.50;1.00;;;;;;4975546;28;20184;-59
2020/12/26 08:26:31;;;;;;;12.10;8.00;;;3.40;1.00;;;;;;4976733;28;20178;-59
2020/12/26 08:29:00;;;;;;;7.95;6.75;;;3.40;1.00;;;;;;4980120;28;20651;-59
2020/12/26 08:31:27;;;;;;;7.07;6.32;;;3.40;1.00;;;;;;4994194;28;20221;-59
2020/12/26 08:34:01;;;;;;;13.43;8.45;;;3.40;1.00;;;;;;4983846;28;20187;-59
2020/12/26 08:36:32;;;;;;;19.98;9.68;;;3.50;1.00;;;;;;4978933;28;20184;-59
2020/12/26 08:39:02;;;;;;;7.88;6.63;;;3.50;1.00;;;;;;4976587;28;20605;-60
2020/12/26 08:41:30;;;;;;;11.45;8.57;;;3.50;1.00;;;;;;4976467;28;20184;-61
2020/12/26 08:43:56;;;;;;;8.65;7.00;;;3.50;1.00;;;;;;4977228;28;20594;-61
2020/12/26 08:46:25;;;;;;;9.52;7.35;;;3.60;1.00;;;;;;4975516;28;20194;-59
2020/12/26 08:48:57;;;;;;;13.20;9.07;;;3.70;1.00;;;;;;4976607;28;20612;-61
2020/12/26 08:51:24;;;;;;;7.78;7.00;;;3.80;1.00;;;;;;4976398;28;20669;-62
2020/12/26 08:53:52;;;;;;;9.20;6.97;;;3.80;1.00;;;;;;4976313;28;20262;-62
2020/12/26 08:56:35;;;;;;;10.25;6.30;;;3.80;1.00;;;;;;4975712;28;20196;-60
2020/12/26 08:59:00;;;;;;;13.23;7.13;;;3.80;1.00;;;;;;4976116;28;20650;-62
2020/12/26 09:01:26;;;;;;;10.13;7.57;;;3.90;1.00;;;;;;4976241;28;20268;-63
2020/12/26 09:03:52;;;;;;;8.73;5.73;;;3.90;99.90;;;;;;4976097;28;20187;-62
2020/12/26 09:06:39;;;;;;;10.27;5.83;;;4.00;99.90;;;;;;4976167;28;20446;-61
2020/12/26 09:09:19;;;;;;;7.18;6.03;;;3.90;99.90;;;;;;4975382;28;20274;-61
2020/12/26 09:11:45;;;;;;;6.65;5.97;;;3.90;99.90;;;;;;4976077;28;20204;-59
2020/12/26 09:14:21;;;;;;;6.82;5.28;;;3.80;99.90;;;;;;4975632;28;20259;-62
2020/12/26 09:16:55;;;;;;;8.40;6.30;;;3.70;99.90;;;;;;4977089;28;20176;-63
2020/12/26 09:19:21;;;;;;;6.22;5.72;;;3.70;1.00;;;;;;4976819;28;20322;-61
2020/12/26 09:21:46;;;;;;;5.27;4.83;;;3.80;1.00;;;;;;4975339;28;20330;-61
2020/12/26 09:24:18;;;;;;;6.63;4.93;;;3.80;1.00;;;;;;4974969;28;20291;-60
2020/12/26 09:26:44;;;;;;;5.85;5.28;;;3.90;1.00;;;;;;4975863;28;20188;-61
2020/12/26 09:29:19;;;;;;;5.10;4.50;;;4.10;99.90;;;;;;4977124;28;20187;-61
2020/12/26 09:31:45;;;;;;;6.60;5.07;;;4.00;99.90;;;;;;4976582;28;20466;-62
2020/12/26 09:34:18;;;;;;;5.40;4.90;;;4.10;99.90;;;;;;4975221;28;20632;-59
2020/12/26 09:36:44;;;;;;;6.85;4.90;;;4.00;99.90;;;;;;4976400;28;20186;-61
2020/12/26 09:39:10;;;;;;;4.82;4.38;;;3.90;99.90;;;;;;4976413;28;20602;-60
2020/12/26 09:41:43;;;;;;;5.20;4.70;;;4.00;99.90;;;;;;4976814;28;20183;-62
2020/12/26 09:44:09;;;;;;;10.60;6.70;;;4.10;99.90;;;;;;4976532;28;20723;-60
2020/12/26 09:46:35;;;;;;;127.13;67.10;;;4.20;99.90;;;;;;4976327;28;20263;-61
2020/12/26 09:49:01;;;;;;;9.13;5.57;;;4.20;99.90;;;;;;4973870;28;20439;-61
2020/12/26 09:51:26;;;;;;;6.60;4.70;;;4.30;99.90;;;;;;4972289;28;20314;-61
2020/12/26 09:53:52;;;;;;;7.60;5.27;;;4.40;99.90;;;;;;4973938;28;20254;-63
2020/12/26 09:56:18;;;;;;;5.83;5.20;;;4.40;99.90;;;;;;4975147;28;20497;-60
2020/12/26 09:58:45;;;;;;;4.80;4.30;;;4.20;99.90;;;;;;4973848;28;20219;-61
2020/12/26 10:01:19;;;;;;;8.93;4.60;;;4.20;99.90;;;;;;4974664;28;20215;-62
2020/12/26 10:03:47;;;;;;;4.60;3.83;;;4.20;99.90;;;;;;4974863;28;20191;-62
2020/12/26 10:06:14;;;;;;;20.48;10.65;;;4.30;99.90;;;;;;4975380;28;20276;-62
2020/12/26 10:08:42;;;;;;;7.15;4.55;;;4.30;99.90;;;;;;4975477;28;20204;-60
2020/12/26 10:11:12;;;;;;;4.25;3.80;;;4.20;99.90;;;;;;4975285;28;20218;-61
2020/12/26 10:13:38;;;;;;;6.10;3.55;;;4.30;99.90;;;;;;4975467;28;20180;-59
2020/12/26 10:16:04;;;;;;;6.13;4.30;;;4.30;99.90;;;;;;4975255;28;20200;-61
2020/12/26 10:18:30;;;;;;;4.38;3.95;;;4.30;99.90;;;;;;4975210;28;20573;-62
2020/12/26 10:20:56;;;;;;;8.47;4.60;;;4.50;99.90;;;;;;4975263;28;20274;-61
2020/12/26 10:23:21;;;;;;;5.50;4.23;;;4.40;99.90;;;;;;4975344;28;20255;-61
2020/12/26 10:25:47;;;;;;;5.30;3.70;;;4.50;99.90;;;;;;4975705;28;20203;-62
2020/12/26 10:28:13;;;;;;;6.15;3.38;;;4.40;99.90;;;;;;4975867;28;20180;-61
2020/12/26 10:30:38;;;;;;;5.20;4.40;;;4.40;99.90;;;;;;4973981;28;20218;-59
2020/12/26 10:33:04;;;;;;;6.23;4.63;;;4.30;99.90;;;;;;4975112;28;20330;-60
2020/12/26 10:35:29;;;;;;;4.43;3.50;;;4.30;99.90;;;;;;4975031;28;20211;-60
2020/12/26 10:37:55;;;;;;;5.07;3.73;;;4.40;99.90;;;;;;4975031;28;20211;-61
2020/12/26 10:40:21;;;;;;;12.00;4.93;;;4.40;99.90;;;;;;4975168;28;20176;-60
2020/12/26 10:42:46;;;;;;;5.80;4.20;;;4.40;99.90;;;;;;4975133;28;20194;-62
2020/12/26 10:45:12;;;;;;;8.97;4.13;;;4.50;99.90;;;;;;4974782;28;20625;-60
2020/12/26 10:47:38;;;;;;;7.30;4.80;;;4.50;99.90;;;;;;4975397;28;20190;-59
2020/12/26 10:50:03;;;;;;;5.23;3.83;;;4.70;99.90;;;;;;4974719;28;20543;-59
2020/12/26 10:52:29;;;;;;;6.10;4.40;;;4.70;99.90;;;;;;4974615;28;20184;-59
2020/12/26 10:54:55;;;;;;;6.93;3.97;;;4.70;99.90;;;;;;4974786;28;20187;-59
2020/12/26 10:57:21;;;;;;;4.23;3.83;;;4.60;99.90;;;;;;4974580;28;20482;-59
2020/12/26 10:59:46;;;;;;;5.30;4.07;;;4.60;99.90;;;;;;4974266;28;20282;-57
2020/12/26 11:02:12;;;;;;;4.80;4.30;;;4.70;99.90;;;;;;4974644;28;20188;-57
2020/12/26 11:04:37;;;;;;;11.53;4.53;;;4.60;99.90;;;;;;4974554;28;20188;-58
2020/12/26 11:07:04;;;;;;;4.37;3.87;;;4.70;99.90;;;;;;4974921;28;20176;-58
2020/12/26 11:09:30;;;;;;;7.15;4.28;;;4.70;99.90;;;;;;4976030;28;20226;-58
2020/12/26 11:11:55;;;;;;;5.73;4.10;;;4.70;99.90;;;;;;4984777;28;20253;-58
2020/12/26 11:14:21;;;;;;;6.10;4.13;;;4.70;99.90;;;;;;4991878;28;20229;-61
2020/12/26 11:16:51;;;;;;;6.03;5.17;;;4.80;99.90;;;;;;4982900;28;20180;-62
2020/12/26 11:19:17;;;;;;;8.07;5.10;;;4.90;99.90;;;;;;4984082;28;20187;-61
2020/12/26 11:21:43;;;;;;;5.70;5.15;;;4.80;99.90;;;;;;4985078;28;20241;-62
2020/12/26 11:24:10;;;;;;;6.22;5.60;;;4.80;99.90;;;;;;4980171;28;20243;-62
2020/12/26 11:26:36;;;;;;;5.55;4.95;;;4.80;99.90;;;;;;4983391;28;20188;-61
2020/12/26 11:29:02;;;;;;;6.17;5.57;;;4.90;99.90;;;;;;4982777;28;20537;-61
2020/12/26 11:31:28;;;;;;;8.43;5.50;;;4.90;99.90;;;;;;4985285;28;20787;-60
2020/12/26 11:33:53;;;;;;;7.53;5.53;;;4.90;99.90;;;;;;4986730;28;20176;-61
2020/12/26 11:36:27;;;;;;;6.87;5.20;;;4.90;99.90;;;;;;4987412;28;20249;-61
2020/12/26 11:38:53;;;;;;;17.90;10.93;;;5.00;99.90;;;;;;4978171;28;20190;-62
2020/12/26 11:41:21;;;;;;;13.02;8.70;;;5.10;99.90;;;;;;4977992;28;20211;-62
2020/12/26 11:43:47;;;;;;;7.40;5.68;;;5.00;99.90;;;;;;4977776;28;20192;-61
2020/12/26 11:46:13;;;;;;;9.47;5.50;;;5.10;99.90;;;;;;4977891;28;20194;-62
2020/12/26 11:48:39;;;;;;;6.20;5.30;;;5.10;99.90;;;;;;4978296;28;20243;-61
2020/12/26 11:51:06;;;;;;;7.85;6.18;;;5.20;99.40;;;;;;4977696;28;20250;-62
2020/12/26 11:53:32;;;;;;;12.82;5.50;;;5.00;98.20;;;;;;4977525;28;20609;-62
2020/12/26 11:55:58;;;;;;;7.05;5.55;;;5.00;99.90;;;;;;4977854;28;20188;-62
2020/12/26 11:58:25;;;;;;;9.05;6.03;;;5.10;99.90;;;;;;4977326;28;20199;-62
2020/12/26 12:00:52;;;;;;;6.57;5.85;;;5.10;99.90;;;;;;4977837;28;20248;-62
2020/12/26 12:03:17;;;;;;;7.00;5.80;;;5.10;99.90;;;;;;4977227;28;20243;-59
2020/12/26 12:05:44;;;;;;;7.87;6.20;;;5.10;99.90;;;;;;4977725;28;20283;-59
2020/12/26 12:08:09;;;;;;;6.70;5.63;;;5.10;99.90;;;;;;4978013;28;20435;-59
2020/12/26 12:10:35;;;;;;;7.53;6.03;;;5.20;99.90;;;;;;4977105;28;20541;-61
2020/12/26 12:13:00;;;;;;;12.50;6.77;;;5.30;99.90;;;;;;4977087;28;20204;-63
2020/12/26 12:15:26;;;;;;;7.57;6.00;;;5.40;99.90;;;;;;4976608;28;20187;-64
2020/12/26 12:17:52;;;;;;;9.93;7.40;;;5.50;23.90;;;;;;4976992;28;20211;-60
2020/12/26 12:20:18;;;;;;;13.40;6.77;;;5.40;1.00;;;;;;4977305;28;20511;-59
2020/12/26 12:22:43;;;;;;;9.95;6.93;;;5.30;1.00;;;;;;4977005;28;20180;-57
2020/12/26 12:25:09;;;;;;;9.23;6.53;;;5.30;20.60;;;;;;4975550;28;20184;-58
2020/12/26 12:27:35;;;;;;;8.53;6.53;;;5.40;38.30;;;;;;4976977;28;20618;-58
2020/12/26 12:30:00;;;;;;;10.43;7.07;;;5.50;45.10;;;;;;4976828;28;20210;-58
2020/12/26 12:32:26;;;;;;;7.53;6.57;;;5.50;1.00;;;;;;4977934;28;20876;-61
2020/12/26 12:34:52;;;;;;;9.38;6.55;;;5.40;1.00;;;;;;4978661;28;20184;-61
2020/12/26 12:37:18;;;;;;;8.03;6.40;;;5.40;1.00;;;;;;4976821;28;20519;-60
2020/12/26 12:39:43;;;;;;;8.90;7.30;;;5.40;1.00;;;;;;4977484;28;20564;-60
2020/12/26 12:42:09;;;;;;;7.70;6.73;;;5.40;1.00;;;;;;4990119;28;20249;-60
2020/12/26 12:44:34;;;;;;;6.30;5.70;;;5.40;1.00;;;;;;4984443;28;20222;-61
2020/12/26 12:47:01;;;;;;;6.87;6.10;;;5.50;1.00;;;;;;4996460;28;20194;-61
2020/12/26 12:49:27;;;;;;;9.43;6.90;;;5.70;1.00;;;;;;4996052;28;20191;-61
2020/12/26 12:51:53;;;;;;;7.47;6.75;;;5.60;1.00;;;;;;4995954;28;20218;-60
2020/12/26 12:54:19;;;;;;;6.50;5.13;;;5.50;1.00;;;;;;4995546;28;20175;-61
2020/12/26 12:56:44;;;;;;;7.40;6.40;;;5.40;1.00;;;;;;4996055;28;20179;-63